createdAt,value
2018-07-09T19:28:58.179Z,2.2
2018-07-09T19:30:01.179Z,1.7
2018-07-09T19:31:03.891Z,1.9
2018-07-09T19:32:07.476Z,2
2018-07-09T19:33:10.099Z,1.9
2018-07-09T19:34:13.425Z,1.9
2018-07-09T19:35:16.416Z,2
2018-07-09T19:36:19.869Z,2
2018-07-09T19:37:24.781Z,2.1
2018-07-09T19:38:27.680Z,2.1
2018-07-09T19:39:30.954Z,2.2
2018-07-09T19:40:33.971Z,2.2
2018-07-09T19:41:37.229Z,2.1
2018-07-09T19:42:40.492Z,2.2
2018-07-09T19:43:43.481Z,2.1
2018-07-09T19:44:46.474Z,2.2
2018-07-09T19:45:50.436Z,2.1
2018-07-09T19:46:53.255Z,2.2
2018-07-09T19:47:56.892Z,2.1
2018-07-09T19:49:00.146Z,2.2
2018-07-09T19:50:02.854Z,2.2
2018-07-09T19:51:06.122Z,2.2
2018-07-09T19:52:09.110Z,2.3
2018-07-09T19:53:12.382Z,2.2
2018-07-09T19:54:15.677Z,2.3
2018-07-09T19:55:18.933Z,2.2
2018-07-09T19:56:21.933Z,2.2
2018-07-09T19:57:24.919Z,2.2
2018-07-09T19:58:27.919Z,2.3
2018-07-09T19:59:31.183Z,2.2
2018-07-09T20:00:34.181Z,2.2
2018-07-09T20:01:37.433Z,2.3
2018-07-09T20:02:40.678Z,2.2
2018-07-09T20:03:43.697Z,2.3
2018-07-09T20:04:46.954Z,2.3
2018-07-09T20:05:49.938Z,2.2
2018-07-09T20:06:53.256Z,2.3
2018-07-09T20:07:55.985Z,2.2
2018-07-09T20:08:59.389Z,2.2
2018-07-09T20:10:02.416Z,2.3
2018-07-09T20:11:05.128Z,2.2
2018-07-09T20:12:08.381Z,2.3
2018-07-09T20:13:11.653Z,2.3
2018-07-09T20:14:14.936Z,2.4
2018-07-09T20:15:18.294Z,2.3
2018-07-09T20:16:21.300Z,2.4
2018-07-09T20:17:23.987Z,2.3
2018-07-09T20:18:26.986Z,2.2
2018-07-09T20:19:30.269Z,2.3
2018-07-09T20:20:32.966Z,2.2
2018-07-09T20:21:35.952Z,2.4
2018-07-09T20:22:38.945Z,2.3
2018-07-09T20:23:42.195Z,2.4
2018-07-09T20:24:45.455Z,2.3
2018-07-09T20:25:48.728Z,2.3
2018-07-09T20:26:51.985Z,2.3
2018-07-09T20:27:55.242Z,2.4
2018-07-09T20:28:58.497Z,2.3
2018-07-09T20:30:01.454Z,2.3
2018-07-09T20:31:04.723Z,2.3
2018-07-09T20:32:07.737Z,2.3
2018-07-09T20:33:10.990Z,2.3
2018-07-09T20:34:13.977Z,2.3
2018-07-09T20:35:16.976Z,2.3
2018-07-09T20:36:19.976Z,2.3
2018-07-09T20:37:23.244Z,2.4
2018-07-09T20:38:26.505Z,2.3
2018-07-09T20:39:29.509Z,2.3
2018-07-09T20:40:32.791Z,2.4
2018-07-09T20:41:36.033Z,2.4
2018-07-09T20:42:39.022Z,2.4
2018-07-09T20:43:42.304Z,2.3
2018-07-09T20:44:45.562Z,2.4
2018-07-09T20:45:49.460Z,2.4
2018-07-09T20:46:52.436Z,2.4
2018-07-09T20:47:55.127Z,2.4
2018-07-09T20:48:58.394Z,2.3
2018-07-09T20:50:01.671Z,2.4
2018-07-09T20:51:04.941Z,2.3
2018-07-09T20:52:07.935Z,2.3
2018-07-09T20:53:11.394Z,2.3
2018-07-09T20:54:14.362Z,2.3
2018-07-09T20:55:17.638Z,2.4
2018-07-09T20:56:20.902Z,2.4
2018-07-09T20:57:24.166Z,2.3
2018-07-09T20:58:27.414Z,2.3
2018-07-09T20:59:30.427Z,2.3
2018-07-09T21:00:33.684Z,2.3
2018-07-09T21:01:36.955Z,2.4
2018-07-09T21:02:40.227Z,2.4
2018-07-09T21:03:43.491Z,2.4
2018-07-09T21:04:46.657Z,2.4
2018-07-09T21:05:49.959Z,2.3
2018-07-09T21:06:52.942Z,2.4
2018-07-09T21:07:55.634Z,2.4
2018-07-09T21:08:58.903Z,2.4
2018-07-09T21:10:01.916Z,2.4
2018-07-09T21:11:04.925Z,2.4
2018-07-09T21:12:07.912Z,2.3
2018-07-09T21:13:10.928Z,2.4
2018-07-09T21:14:13.638Z,2.3
2018-07-09T21:15:18.305Z,2.4
2018-07-09T21:16:22.368Z,2.3
2018-07-09T21:17:24.834Z,2.4
2018-07-09T21:18:28.097Z,2.4
2018-07-09T21:19:31.096Z,2.4
2018-07-09T21:20:34.354Z,2.4
2018-07-09T21:21:37.323Z,2.3
2018-07-09T21:22:40.027Z,2.4
2018-07-09T21:23:43.287Z,2.4
2018-07-09T21:24:46.546Z,2.3
2018-07-09T21:25:49.533Z,2.3
2018-07-09T21:26:52.792Z,2.3
2018-07-09T21:27:56.056Z,2.4
2018-07-09T21:28:59.247Z,2.3
2018-07-09T21:30:02.502Z,2.3
2018-07-09T21:31:05.762Z,2.3
2018-07-09T21:32:08.742Z,2.4
2018-07-09T21:33:12.000Z,2.4
2018-07-09T21:34:15.252Z,2.4
2018-07-09T21:35:17.998Z,2.4
2018-07-09T21:36:20.654Z,2.4
2018-07-09T21:37:23.954Z,2.4
2018-07-09T21:38:27.275Z,2.3
2018-07-09T21:39:30.540Z,2.4
2018-07-09T21:40:33.255Z,2.4
2018-07-09T21:41:36.524Z,2.4
2018-07-09T21:42:39.507Z,2.3
2018-07-09T21:43:42.477Z,2.4
2018-07-09T21:44:45.745Z,2.4
2018-07-09T21:45:48.729Z,2.5
2018-07-09T21:46:51.436Z,2.5
2018-07-09T21:48:12.689Z,2.5
2018-07-09T21:49:15.659Z,2.4
2018-07-09T21:50:18.339Z,2.4
2018-07-09T21:51:21.332Z,2.4
2018-07-09T21:52:24.589Z,2.4
2018-07-09T21:53:27.845Z,2.4
2018-07-09T21:54:30.828Z,2.4
2018-07-09T21:55:34.100Z,2.4
2018-07-09T21:56:37.677Z,2.4
2018-07-09T21:57:40.658Z,2.3
2018-07-09T21:58:43.913Z,2.4
2018-07-09T21:59:46.622Z,2.5
2018-07-09T22:00:49.892Z,2.5
2018-07-09T22:01:53.144Z,2.4
2018-07-09T22:02:56.138Z,2.4
2018-07-09T22:03:58.839Z,2.4
2018-07-09T22:05:02.095Z,2.5
2018-07-09T22:06:04.816Z,2.5
2018-07-09T22:07:08.069Z,2.4
2018-07-09T22:08:10.778Z,2.4
2018-07-09T22:09:14.036Z,2.5
2018-07-09T22:10:17.015Z,2.5
2018-07-09T22:11:19.994Z,2.4
2018-07-09T22:12:23.257Z,2.4
2018-07-09T22:13:26.516Z,2.5
2018-07-09T22:14:29.486Z,2.3
2018-07-09T22:15:31.900Z,2.3
2018-07-09T22:16:35.157Z,2.5
2018-07-09T22:17:38.133Z,2.4
2018-07-09T22:18:41.403Z,2.5
2018-07-09T22:19:44.089Z,2.4
2018-07-09T22:20:47.325Z,2.4
2018-07-09T22:21:50.580Z,2.4
2018-07-09T22:22:53.849Z,2.4
2018-07-09T22:23:57.109Z,2.4
2018-07-09T22:25:00.383Z,2.5
2018-07-09T22:26:03.625Z,2.5
2018-07-09T22:27:06.048Z,2.4
2018-07-09T22:28:09.031Z,2.5
2018-07-09T22:29:12.310Z,2.4
2018-07-09T22:30:15.294Z,2.4
2018-07-09T22:31:18.295Z,2.5
2018-07-09T22:32:21.553Z,2.5
2018-07-09T22:33:24.533Z,2.4
2018-07-09T22:34:27.247Z,2.3
2018-07-09T22:35:30.516Z,2.4
2018-07-09T22:36:33.226Z,2.4
2018-07-09T22:37:36.487Z,2.5
2018-07-09T22:38:39.200Z,2.5
2018-07-09T22:39:42.168Z,2.4
2018-07-09T22:40:45.124Z,2.4
2018-07-09T22:41:48.100Z,2.4
2018-07-09T22:42:51.356Z,2.5
2018-07-09T22:43:54.336Z,2.4
2018-07-09T22:44:57.317Z,2.5
2018-07-09T22:46:00.302Z,2.4
2018-07-09T22:47:03.565Z,2.4
2018-07-09T22:48:06.827Z,2.5
2018-07-09T22:49:10.070Z,2.4
2018-07-09T22:50:13.045Z,2.4
2018-07-09T22:51:17.649Z,2.4
2018-07-09T22:52:20.973Z,2.4
2018-07-09T22:53:23.674Z,2.4
2018-07-09T22:54:26.941Z,2.4
2018-07-09T22:55:30.192Z,2.5
2018-07-09T22:56:33.174Z,2.4
2018-07-09T22:57:36.433Z,2.4
2018-07-09T22:58:39.406Z,2.4
2018-07-09T22:59:42.357Z,2.4
2018-07-09T23:00:45.614Z,2.4
2018-07-09T23:01:48.881Z,2.4
2018-07-09T23:02:51.555Z,2.4
2018-07-09T23:03:54.522Z,2.4
2018-07-09T23:04:57.524Z,2.4
2018-07-09T23:06:00.789Z,2.5
2018-07-09T23:07:04.049Z,2.5
2018-07-09T23:08:07.290Z,2.4
2018-07-09T23:09:10.262Z,2.4
2018-07-09T23:10:12.972Z,2.5
2018-07-09T23:11:15.943Z,2.5
2018-07-09T23:12:19.206Z,2.5
2018-07-09T23:13:22.459Z,2.4
2018-07-09T23:14:25.429Z,2.4
2018-07-09T23:15:28.375Z,2.4
2018-07-09T23:16:31.352Z,2.4
2018-07-09T23:17:34.352Z,2.5
2018-07-09T23:18:37.617Z,2.4
2018-07-09T23:19:40.329Z,2.3
2018-07-09T23:20:43.595Z,2.4
2018-07-09T23:21:46.576Z,2.4
2018-07-09T23:22:49.546Z,2.4
2018-07-09T23:23:52.792Z,2.4
2018-07-09T23:24:55.776Z,2.4
2018-07-09T23:25:58.752Z,2.4
2018-07-09T23:27:01.726Z,2.5
2018-07-09T23:28:04.994Z,2.4
2018-07-09T23:29:07.683Z,2.4
2018-07-09T23:30:10.931Z,2.5
2018-07-09T23:31:13.924Z,2.4
2018-07-09T23:32:17.170Z,2.5
2018-07-09T23:33:20.154Z,2.4
2018-07-09T23:34:23.135Z,2.5
2018-07-09T23:35:26.385Z,2.5
2018-07-09T23:36:29.368Z,2.3
2018-07-09T23:37:32.620Z,2.5
2018-07-09T23:38:35.892Z,2.5
2018-07-09T23:39:38.867Z,2.3
2018-07-09T23:40:42.114Z,2.4
2018-07-09T23:41:45.366Z,2.5
2018-07-09T23:42:48.623Z,2.4
2018-07-09T23:43:51.885Z,2.4
2018-07-09T23:44:54.325Z,2.4
2018-07-09T23:45:57.312Z,2.4
2018-07-09T23:47:00.030Z,2.5
2018-07-09T23:48:03.002Z,2.4
2018-07-09T23:49:06.005Z,2.5
2018-07-09T23:50:08.980Z,2.5
2018-07-09T23:51:11.215Z,2.4
2018-07-09T23:52:14.179Z,2.4
2018-07-09T23:53:17.186Z,2.4
2018-07-09T23:54:20.443Z,2.4
2018-07-09T23:55:23.148Z,2.5
2018-07-09T23:56:26.407Z,2.4
2018-07-09T23:57:29.653Z,2.4
2018-07-09T23:58:33.092Z,2.4
2018-07-09T23:59:36.395Z,2.5
